Relevés horaires Beauvechain (Belgique)


Relevés horaires à Beauvechain - Vendredi 10 Mars 2017
Heure UTC1 Température [°C] Vent [km/h] Hum. [%] Pres.4 [hPa] Visi. [Km] Nébu. [octa] Préc.5 [mm] Cond.
2m. Res. Ros. Dir.2 Vit. Moy. Raf.3
23:00 6.0 6.0 1.8 ESE 3.7 -- 7.4 74 1025.5(-1.1/3h) 20 -- -- --
22:00 6.6 6.6 1.7 NNO 1.9 -- 5.6 71 1025.7(-0.7/3h) 20 -- -- --
21:00 7.0 7.0 1.2 E 3.7 -- 5.6 67 1026(-0.4/3h) 20 -- -- --
20:00 7.5 7.5 1.3 NNO 1.9 -- 3.7 65 1026.5(-0.1/3h) 20 -- -- --
19:00 8.1 8.1 1.6 NNO 1.9 -- 5.6 63 1026.5(-0.4/3h) 20 -- -- --
18:00 8.9 8.9 2.4 E 3.7 -- 9.3 64 1026.4(-0.7/3h) 20 -- -- --
17:00 10.3 10.3 0.7 E 3.7 -- 5.6 51 1026.5(-0.9/3h) 20 7/8 -- --
16:00 10.9 10.9 0.9 NNO 1.9 -- 5.6 50 1026.7(-1.6/3h) 20 7/8 -- --
15:00 10.2 10.2 1.0 ESE 3.7 -- 9.3 53 1027(-1.6/3h) 20 6/8 -- --
14:00 9.6 9.1 2.0 E 5.6 -- 9.3 59 1027.5(-1.5/3h) 20 6/8 -- --
13:00 9.6 9.6 2.2 NNO 1.9 -- 7.4 60 1028.5(-0.8/3h) 20 4/8 -- --
12:00 8.5 7.9 2.0 ESE 5.6 -- 9.3 64 1028.7(-0.8/3h) 20 7/8 -- --
11:00 8.0 8.0 2.2 SE 3.7 -- 7.4 67 1029.2(-0.2/3h) 20 6/8 -- --
10:00 7.0 7.0 3.0 SSE 3.7 -- 5.6 76 1029.5(0.2/3h) 20 4/8 -- --
09:00 6.0 6.0 2.4 SSE 3.7 -- 7.4 78 1029.7(0.4/3h) 20 2/8 -- --
08:00 4.6 4.6 2.1 ESE 3.7 -- 5.6 84 1029.7(0.6/3h) 15 2/8 -- --
07:00 3.7 3.7 1.7 NNO 1.9 -- 3.7 87 1029.5(0.5/3h) 15 3/8 -- --
06:00 3.2 3.2 1.9 NNO 1.9 -- 5.6 91 1029.5(0.4/3h) 12 5/8 -- --
05:00 3.7 3.7 2.0 NNO 1.9 -- 1.9 89 1029(0.2/3h) 15 -- -- --
04:00 3.9 3.9 2.6 NNO 1.9 -- 3.7 91 1029(0.6/3h) 15 -- -- --
03:00 3.1 3.1 2.1 NNO 1.9 -- 5.6 93 1029(1.0/3h) 13 -- -- --
02:00 4.1 4.1 2.9 NNO 1.9 -- 5.6 92 1028.9(1.1/3h) 19 -- -- --
01:00 4.5 4.5 2.9 NNO 1.9 -- 3.7 89 1028.2(1.3/3h) 20 -- -- --
00:00 4.4 4.4 2.6 NNO 1.9 -- 13.0 88 1027.9(1.6/3h) 20 -- -- --

1 Coordinated Universal Time. Actuellement il est 14:00 locale et 13:00 UTC.

2 Le vent souffle depuis la direction indiquée vers la direction oposée.

3 Les rafales max. sont disponible 40 min après l'heure du relevé.

4 Pour les stations d'altitude (plus de 600m) le géopotentiel du niveau le plus proche de la pression obligatoire est indiqué.

5 Les stations disposant d'un diffuseur peuvent indiquer "trace". Cela signifie que des précipitations ont touchés le sol mais que la quantité est inférieure à 0.1 mm.

Récapitulatif de la journée
Température [°C] Vent [km/h] Ensoleillement4 [h] Precipitations totale5 [mm] Pression [Hpa]
Min1 Max.2 Moy.3 Max. Min Max.
3.0 11.0 0 13.0 0 h 0 min 0 1025.5 1029.7

1 Température minimale relevée entre 18:00 UTC la veille et 18:00 UTC le jour donné.

2 Température maximale relevée entre 06:00 UTC le jour donné et 06:00 UTC le lendemain.

3 Vent moyen de la journée basé sur les relevés horaires.

4 Ensoleillement en heures relevé entre 06:00 UTC la veille et 06:00 UTC le jour donné.

5 Précipitations totales tombées entre 06:00 UTC la jour donné et 06:00 UTC le lendemain.

Graphiques horaires